createdAt,value
2022-12-19T00:00:50.134Z,69.78
2022-12-19T00:01:50.503Z,69.66
2022-12-19T00:02:50.813Z,69.64
2022-12-19T00:03:51.083Z,69.94
2022-12-19T00:04:51.323Z,69.93
2022-12-19T00:05:51.625Z,69.97
2022-12-19T00:06:51.971Z,68.76
2022-12-19T00:07:52.254Z,68.81
2022-12-19T00:08:52.592Z,68.82
2022-12-19T00:09:52.947Z,68.82
2022-12-19T00:10:53.285Z,68.78
2022-12-19T00:11:53.564Z,68.77
2022-12-19T00:12:53.901Z,70.03
2022-12-19T00:13:54.281Z,68.77
2022-12-19T00:14:54.554Z,68.77
2022-12-19T00:15:54.929Z,70.03
2022-12-19T00:16:55.121Z,68.77
2022-12-19T00:17:55.484Z,68.77
2022-12-19T00:18:55.820Z,68.77
2022-12-19T00:19:56.064Z,70.02
2022-12-19T00:20:56.440Z,69.93
2022-12-19T00:21:56.733Z,70.03
2022-12-19T00:22:57.028Z,68.75
2022-12-19T00:23:57.349Z,68.95
2022-12-19T00:24:57.643Z,68.95
2022-12-19T00:25:57.960Z,68.95
2022-12-19T00:26:58.230Z,68.95
2022-12-19T00:27:58.470Z,68.95
2022-12-19T00:28:58.771Z,69.19
2022-12-19T00:29:59.063Z,69.19
2022-12-19T00:30:59.345Z,69.15
2022-12-19T00:31:59.738Z,69.26
2022-12-19T00:33:00.020Z,69.53
2022-12-19T00:34:00.309Z,69.53
2022-12-19T00:35:01.162Z,70.13
2022-12-19T00:36:00.915Z,70.13
2022-12-19T00:37:01.250Z,70.13
2022-12-19T00:38:01.599Z,70.13
2022-12-19T00:39:01.900Z,70.13
2022-12-19T00:40:03.185Z,70.13
2022-12-19T00:41:02.453Z,70.13
2022-12-19T00:42:02.743Z,70.13
2022-12-19T00:43:03.100Z,70.13
2022-12-19T00:44:03.370Z,70.13
2022-12-19T00:45:03.739Z,70.13
2022-12-19T00:46:04.048Z,70.13
2022-12-19T00:47:04.389Z,70.13
2022-12-19T00:48:04.728Z,70.13
2022-12-19T00:49:04.994Z,70.23
2022-12-19T00:50:05.332Z,70.22
2022-12-19T00:51:05.602Z,70.22
2022-12-19T00:52:05.898Z,70.23
2022-12-19T00:53:06.198Z,70.23
2022-12-19T00:54:06.762Z,70.23
2022-12-19T00:55:06.845Z,70.34
2022-12-19T00:56:08.069Z,70.23
2022-12-19T00:57:07.319Z,70.22
2022-12-19T00:58:07.623Z,70.22
2022-12-19T00:59:07.959Z,70.34
2022-12-19T01:00:08.271Z,70.34
2022-12-19T01:01:08.651Z,70.34
2022-12-19T01:02:08.990Z,70.34
2022-12-19T01:03:09.210Z,70.34
2022-12-19T01:05:10.653Z,69.77
2022-12-19T01:06:09.930Z,69.77
2022-12-19T01:07:10.182Z,69.87
2022-12-19T01:08:10.510Z,69.24
2022-12-19T01:09:10.839Z,69.24
2022-12-19T01:10:11.189Z,69.14
2022-12-19T01:11:11.379Z,70.31
2022-12-19T01:12:11.661Z,70.31
2022-12-19T01:13:12.000Z,70.41
2022-12-19T01:14:16.083Z,70.41
2022-12-19T01:15:13.618Z,70.31
2022-12-19T01:16:12.877Z,68.85
2022-12-19T01:17:13.061Z,68.85
2022-12-19T01:18:13.428Z,70.31
2022-12-19T01:19:13.768Z,70.31
2022-12-19T01:20:13.941Z,70.31
2022-12-19T01:21:14.222Z,70.32
2022-12-19T01:22:14.641Z,70.31
2022-12-19T01:23:14.908Z,70.41
2022-12-19T01:24:19.110Z,70.31
2022-12-19T01:25:15.601Z,70.31
2022-12-19T01:26:15.922Z,70.31
2022-12-19T01:27:16.201Z,70.32
2022-12-19T01:28:16.541Z,70.31
2022-12-19T01:29:16.907Z,70.51
2022-12-19T01:30:17.212Z,70.51
2022-12-19T01:31:17.570Z,70.51
2022-12-19T01:32:17.829Z,70.32
2022-12-19T01:33:18.188Z,70.31
2022-12-19T01:34:18.521Z,70.32
2022-12-19T01:35:21.651Z,70.32
2022-12-19T01:36:19.132Z,70.31
2022-12-19T01:37:19.447Z,70.32
2022-12-19T01:40:42.036Z,70.31
2022-12-19T01:41:42.344Z,68.90
2022-12-19T01:42:42.624Z,68.77
2022-12-19T01:43:43.002Z,68.90
2022-12-19T01:44:43.241Z,69.00
2022-12-19T01:45:45.881Z,68.80
2022-12-19T01:46:43.855Z,69.02
2022-12-19T01:47:44.072Z,68.82
2022-12-19T01:48:44.304Z,69.02
2022-12-19T01:49:44.622Z,69.02
2022-12-19T01:50:53.603Z,69.02
2022-12-19T01:51:46.241Z,69.00
2022-12-19T01:52:45.455Z,68.97
2022-12-19T01:53:49.394Z,68.98
2022-12-19T01:54:46.080Z,68.98
2022-12-19T01:55:46.369Z,68.98
2022-12-19T01:56:46.609Z,68.80
2022-12-19T01:57:47.000Z,68.90
2022-12-19T01:58:47.163Z,68.90
2022-12-19T01:59:47.488Z,68.90
2022-12-19T02:00:47.876Z,68.79
2022-12-19T02:01:51.572Z,68.97
2022-12-19T02:02:48.562Z,68.92
2022-12-19T02:03:48.819Z,69.03
2022-12-19T02:04:49.121Z,69.10
2022-12-19T02:05:49.439Z,69.10
2022-12-19T02:06:49.779Z,68.82
2022-12-19T02:07:50.082Z,68.82
2022-12-19T02:08:50.375Z,69.10
2022-12-19T02:09:57.025Z,69.10
2022-12-19T02:10:51.998Z,68.90
2022-12-19T02:11:51.220Z,69.23
2022-12-19T02:12:51.553Z,69.23
2022-12-19T02:13:51.827Z,69.20
2022-12-19T02:14:52.125Z,68.85
2022-12-19T02:15:52.482Z,68.85
2022-12-19T02:16:52.847Z,68.99
2022-12-19T02:17:53.054Z,69.20
2022-12-19T02:18:53.344Z,69.20
2022-12-19T02:19:53.682Z,69.20
2022-12-19T02:20:54.016Z,69.20
2022-12-19T02:21:54.636Z,69.19
2022-12-19T02:22:54.577Z,69.20
2022-12-19T02:23:54.849Z,69.20
2022-12-19T02:24:55.166Z,69.19
2022-12-19T02:25:56.745Z,68.81
2022-12-19T02:26:55.757Z,68.81
2022-12-19T02:27:56.062Z,68.81
2022-12-19T02:28:56.384Z,68.81
2022-12-19T02:29:56.665Z,68.81
2022-12-19T02:30:57.012Z,68.81
2022-12-19T02:31:57.359Z,68.91
2022-12-19T02:32:57.550Z,68.91
2022-12-19T02:33:57.828Z,68.81
2022-12-19T02:34:58.181Z,69.29
2022-12-19T02:35:58.465Z,68.91
2022-12-19T02:36:58.746Z,68.81
2022-12-19T02:37:59.036Z,69.19
2022-12-19T02:38:59.297Z,69.20
2022-12-19T02:39:59.569Z,69.29
2022-12-19T02:40:59.913Z,68.91
2022-12-19T02:42:00.219Z,69.29
2022-12-19T02:43:00.557Z,69.19
2022-12-19T02:44:00.861Z,69.29
2022-12-19T02:45:01.182Z,69.29
2022-12-19T02:46:01.517Z,69.20
2022-12-19T02:47:01.703Z,69.31
2022-12-19T02:48:07.359Z,69.20
2022-12-19T02:49:03.308Z,68.91
2022-12-19T02:50:02.542Z,68.91
2022-12-19T02:51:02.879Z,68.81
2022-12-19T02:52:03.154Z,68.91
2022-12-19T02:53:03.509Z,68.90
2022-12-19T02:54:03.820Z,68.80
2022-12-19T02:55:04.199Z,68.90
2022-12-19T02:56:08.100Z,68.90
2022-12-19T02:57:05.701Z,68.90
2022-12-19T02:58:04.962Z,68.81
2022-12-19T02:59:05.294Z,68.81
2022-12-19T03:00:05.629Z,68.80
2022-12-19T03:01:06.080Z,70.71
2022-12-19T03:02:06.485Z,70.73
2022-12-19T03:03:06.657Z,70.72
2022-12-19T03:04:06.852Z,70.82
2022-12-19T03:05:07.101Z,68.90
2022-12-19T03:06:07.409Z,68.75
2022-12-19T03:07:07.700Z,69.17
2022-12-19T03:08:08.016Z,69.29
2022-12-19T03:09:08.295Z,69.31
2022-12-19T03:10:08.625Z,68.76
2022-12-19T03:11:08.949Z,68.76
2022-12-19T03:12:12.835Z,69.24
2022-12-19T03:13:10.500Z,69.37
2022-12-19T03:14:09.813Z,69.27
2022-12-19T03:15:10.160Z,70.36
2022-12-19T03:16:10.493Z,70.37
2022-12-19T03:17:10.791Z,70.78
2022-12-19T03:18:11.064Z,70.97
2022-12-19T03:19:11.347Z,70.31
2022-12-19T03:20:11.714Z,70.98
2022-12-19T03:21:12.020Z,70.42
2022-12-19T03:22:12.299Z,70.31
2022-12-19T03:23:12.595Z,70.42
2022-12-19T03:24:12.896Z,70.83
2022-12-19T03:25:13.195Z,71.03
2022-12-19T03:26:13.507Z,71.08
2022-12-19T03:27:13.793Z,71.08
2022-12-19T03:28:14.123Z,71.18
2022-12-19T03:29:14.423Z,71.18
2022-12-19T03:30:14.686Z,71.18
2022-12-19T03:31:15.062Z,71.18
2022-12-19T03:32:15.318Z,71.18
2022-12-19T03:33:15.619Z,71.18
2022-12-19T03:34:15.924Z,71.18
2022-12-19T03:35:16.258Z,71.18
2022-12-19T03:36:16.561Z,71.18
2022-12-19T03:37:16.908Z,71.28
2022-12-19T03:38:17.216Z,71.28
2022-12-19T03:39:17.564Z,71.28
2022-12-19T03:40:17.868Z,71.28
2022-12-19T03:41:18.120Z,71.39
2022-12-19T03:42:18.445Z,71.39
2022-12-19T03:43:18.847Z,71.39
2022-12-19T03:44:19.023Z,71.39
2022-12-19T03:45:19.331Z,71.39
2022-12-19T03:46:19.746Z,71.39
2022-12-19T03:47:19.927Z,71.39
2022-12-19T03:48:20.235Z,71.49
2022-12-19T03:49:20.578Z,71.49
2022-12-19T03:50:20.903Z,71.45
2022-12-19T03:51:21.239Z,71.45
2022-12-19T03:52:21.570Z,71.45
2022-12-19T03:53:21.872Z,71.35
2022-12-19T03:54:22.171Z,71.45
2022-12-19T03:55:22.511Z,71.45
2022-12-19T03:56:22.783Z,71.35
2022-12-19T03:57:23.108Z,71.35
2022-12-19T03:58:23.446Z,71.35
2022-12-19T03:59:23.733Z,71.35
2022-12-19T04:00:24.070Z,71.35
2022-12-19T04:01:24.465Z,71.35
2022-12-19T04:02:24.748Z,71.35
2022-12-19T04:03:24.999Z,71.35
2022-12-19T04:04:25.222Z,71.35
2022-12-19T04:05:25.563Z,71.35
2022-12-19T04:06:25.938Z,71.35
2022-12-19T04:07:26.109Z,71.35
2022-12-19T04:08:26.440Z,71.35
2022-12-19T04:09:26.756Z,71.35
2022-12-19T04:10:27.130Z,71.35
2022-12-19T04:11:27.319Z,71.35
2022-12-19T04:12:27.627Z,71.35
2022-12-19T04:13:27.991Z,71.45
2022-12-19T04:14:28.164Z,71.35
2022-12-19T04:15:28.515Z,71.35
2022-12-19T04:16:28.819Z,71.35
2022-12-19T04:17:29.182Z,71.45
2022-12-19T04:18:29.382Z,71.45
2022-12-19T04:19:29.721Z,71.42
2022-12-19T04:20:30.060Z,71.42
2022-12-19T04:21:30.360Z,71.42
2022-12-19T04:22:30.713Z,71.42
2022-12-19T04:23:31.007Z,71.45
2022-12-19T04:24:31.342Z,71.42
2022-12-19T04:25:31.696Z,71.53
2022-12-19T04:26:31.916Z,71.53
2022-12-19T04:27:32.235Z,71.53
2022-12-19T04:28:32.560Z,71.53
2022-12-19T04:29:32.896Z,71.53
2022-12-19T04:30:36.942Z,71.53
2022-12-19T04:31:33.483Z,71.53
2022-12-19T04:32:33.811Z,71.53
2022-12-19T04:33:34.129Z,71.53
2022-12-19T04:34:36.877Z,71.63
2022-12-19T04:35:35.766Z,71.53
2022-12-19T04:36:35.003Z,71.63
2022-12-19T04:37:35.288Z,71.63
2022-12-19T04:38:35.606Z,71.63
2022-12-19T04:39:35.977Z,71.63
2022-12-19T04:40:40.832Z,71.53
2022-12-19T04:41:37.515Z,71.53
2022-12-19T04:42:36.760Z,71.63
2022-12-19T04:43:37.043Z,71.63
2022-12-19T04:44:37.350Z,71.53
2022-12-19T04:45:37.720Z,71.53
2022-12-19T04:46:37.998Z,71.53
2022-12-19T04:47:38.314Z,71.63
2022-12-19T04:48:38.650Z,71.63
2022-12-19T04:49:38.970Z,71.63
2022-12-19T04:50:39.311Z,71.63
2022-12-19T04:51:39.533Z,71.63
2022-12-19T04:52:39.854Z,71.63
2022-12-19T04:53:40.186Z,71.63
2022-12-19T04:54:40.493Z,71.63
2022-12-19T04:55:40.821Z,71.63
2022-12-19T04:56:41.154Z,71.63
2022-12-19T04:57:41.524Z,71.63
2022-12-19T04:58:41.693Z,71.63
2022-12-19T04:59:42.021Z,71.63
2022-12-19T05:00:42.332Z,71.63
2022-12-19T05:01:42.671Z,71.63
2022-12-19T05:02:43.016Z,71.63
2022-12-19T05:03:43.241Z,71.63
2022-12-19T05:04:43.407Z,71.63
2022-12-19T05:05:43.784Z,71.63
2022-12-19T05:06:44.005Z,71.63
2022-12-19T05:07:44.331Z,71.63
2022-12-19T05:08:44.629Z,71.73
2022-12-19T05:09:44.979Z,71.73
2022-12-19T05:10:45.331Z,71.73
2022-12-19T05:11:45.579Z,71.84
2022-12-19T05:12:45.887Z,71.84
2022-12-19T05:13:46.230Z,71.84
2022-12-19T05:14:46.550Z,71.84
2022-12-19T05:15:46.885Z,71.94
2022-12-19T05:16:47.138Z,71.94
2022-12-19T05:17:47.540Z,71.94
2022-12-19T05:18:47.773Z,71.94
2022-12-19T05:19:48.066Z,71.94
2022-12-19T05:20:48.413Z,71.94
2022-12-19T05:21:48.764Z,71.94
2022-12-19T05:22:48.984Z,72.05
2022-12-19T05:23:49.276Z,72.05
2022-12-19T05:24:49.628Z,72.05
2022-12-19T05:25:49.855Z,72.01
2022-12-19T05:26:50.144Z,71.91
2022-12-19T05:27:50.450Z,71.91
2022-12-19T05:28:50.767Z,71.91
2022-12-19T05:29:51.144Z,71.91
2022-12-19T05:30:52.665Z,71.91
2022-12-19T05:31:51.663Z,71.91
2022-12-19T05:32:51.972Z,71.91
2022-12-19T05:33:52.267Z,71.91
2022-12-19T05:34:52.735Z,71.91
2022-12-19T05:35:52.950Z,71.91
2022-12-19T05:36:53.141Z,71.91
2022-12-19T05:37:53.479Z,71.91
2022-12-19T05:38:53.818Z,71.91
2022-12-19T05:39:54.120Z,71.91
2022-12-19T05:40:54.434Z,71.88
2022-12-19T05:41:54.742Z,71.98
2022-12-19T05:42:55.020Z,71.88
2022-12-19T05:43:55.377Z,71.88
2022-12-19T05:44:55.659Z,71.88
2022-12-19T05:45:55.985Z,71.88
2022-12-19T05:46:56.379Z,71.88
2022-12-19T05:48:01.086Z,71.88
2022-12-19T05:48:56.817Z,71.98
2022-12-19T05:49:57.200Z,71.98
2022-12-19T05:50:57.449Z,71.98
2022-12-19T05:51:57.732Z,71.98
2022-12-19T05:52:58.074Z,71.98
2022-12-19T05:53:58.353Z,71.98
2022-12-19T05:54:58.716Z,71.98
2022-12-19T05:55:59.050Z,71.98
2022-12-19T05:56:59.268Z,72.08
2022-12-19T05:57:59.492Z,72.08
2022-12-19T05:58:59.819Z,72.08
2022-12-19T06:00:00.148Z,72.08
2022-12-19T06:01:00.926Z,72.08
2022-12-19T06:02:00.944Z,72.08
2022-12-19T06:03:01.080Z,72.08
2022-12-19T06:04:01.279Z,72.05
2022-12-19T06:05:01.619Z,72.05
2022-12-19T06:06:01.980Z,72.05
2022-12-19T06:07:02.156Z,72.05
2022-12-19T06:08:02.455Z,72.05
2022-12-19T06:09:02.781Z,72.05
2022-12-19T06:10:03.115Z,72.05
2022-12-19T06:11:03.470Z,72.05
2022-12-19T06:12:03.777Z,72.05
2022-12-19T06:13:04.085Z,72.05
2022-12-19T06:14:04.376Z,72.05
2022-12-19T06:15:04.703Z,72.05
2022-12-19T06:16:05.069Z,72.05
2022-12-19T06:17:05.344Z,72.02
2022-12-19T06:18:05.632Z,72.02
2022-12-19T06:19:05.947Z,72.02
2022-12-19T06:20:06.209Z,72.02
2022-12-19T06:21:06.609Z,72.02
2022-12-19T06:22:06.878Z,72.12
2022-12-19T06:23:07.163Z,72.02
2022-12-19T06:24:07.488Z,72.12
2022-12-19T06:25:07.766Z,72.12
2022-12-19T06:26:08.108Z,72.02
2022-12-19T06:27:08.455Z,72.12
2022-12-19T06:28:08.772Z,72.12
2022-12-19T06:29:09.042Z,72.02
2022-12-19T06:30:09.346Z,72.12
2022-12-19T06:31:09.665Z,72.02
2022-12-19T06:32:09.966Z,72.12
2022-12-19T06:33:10.333Z,72.12
2022-12-19T06:34:10.623Z,72.12
2022-12-19T06:35:10.931Z,72.12
2022-12-19T06:36:11.240Z,72.12
2022-12-19T06:37:11.515Z,72.19
2022-12-19T06:38:11.796Z,72.19
2022-12-19T06:39:12.124Z,72.19
2022-12-19T06:40:12.413Z,72.19
2022-12-19T06:41:12.706Z,72.19
2022-12-19T06:42:13.024Z,72.19
2022-12-19T06:43:13.332Z,72.19
2022-12-19T06:44:13.626Z,72.19
2022-12-19T06:45:13.911Z,72.19
2022-12-19T06:46:14.327Z,72.19
2022-12-19T06:47:14.487Z,72.19
2022-12-19T06:48:14.827Z,72.19
2022-12-19T06:49:15.120Z,72.19
2022-12-19T06:50:15.371Z,72.19
2022-12-19T06:51:15.647Z,72.19
2022-12-19T06:52:15.953Z,72.19
2022-12-19T06:53:16.216Z,72.19
2022-12-19T06:54:16.493Z,72.19
2022-12-19T06:55:16.800Z,72.16
2022-12-19T06:56:17.102Z,72.16
2022-12-19T06:57:17.429Z,72.16
2022-12-19T06:58:22.717Z,72.16
2022-12-19T06:59:19.021Z,72.16
2022-12-19T07:00:18.273Z,72.16
2022-12-19T07:01:18.652Z,72.16
2022-12-19T07:02:18.896Z,72.16
2022-12-19T07:03:19.113Z,72.16
2022-12-19T07:04:19.442Z,72.16
2022-12-19T07:05:19.638Z,72.16
2022-12-19T07:06:19.981Z,72.16
2022-12-19T07:07:20.244Z,72.16
2022-12-19T07:08:20.586Z,72.16
2022-12-19T07:09:20.884Z,72.16
2022-12-19T07:10:21.217Z,72.26
2022-12-19T07:11:21.533Z,72.16
2022-12-19T07:12:21.832Z,72.16
2022-12-19T07:13:22.111Z,72.16
2022-12-19T07:14:23.404Z,72.26
2022-12-19T07:15:22.660Z,72.26
2022-12-19T07:16:23.044Z,72.26
2022-12-19T07:17:23.219Z,72.26
2022-12-19T07:18:23.519Z,72.26
2022-12-19T07:19:23.821Z,72.26
2022-12-19T07:20:24.084Z,72.26
2022-12-19T07:21:24.449Z,72.26
2022-12-19T07:22:24.748Z,72.26
2022-12-19T07:23:25.049Z,72.26
2022-12-19T07:24:25.336Z,72.26
2022-12-19T07:25:25.628Z,72.26
2022-12-19T07:26:25.976Z,72.26
2022-12-19T07:27:30.503Z,72.26
2022-12-19T07:28:27.567Z,72.26
2022-12-19T07:29:26.830Z,72.26
2022-12-19T07:30:27.171Z,72.26
2022-12-19T07:31:27.436Z,72.26
2022-12-19T07:32:27.630Z,72.36
2022-12-19T07:33:27.948Z,72.36
2022-12-19T07:34:28.267Z,72.36
2022-12-19T07:35:28.573Z,72.36
2022-12-19T07:36:28.873Z,72.33
2022-12-19T07:37:29.160Z,72.33
2022-12-19T07:38:29.503Z,72.33
2022-12-19T07:39:29.841Z,72.33
2022-12-19T07:40:30.270Z,72.33
2022-12-19T07:41:30.491Z,72.33
2022-12-19T07:42:32.625Z,72.33
2022-12-19T07:43:31.089Z,72.43
2022-12-19T07:44:31.430Z,72.43
2022-12-19T07:45:31.764Z,72.53
2022-12-19T07:46:32.010Z,72.53
2022-12-19T07:47:32.308Z,72.53
2022-12-19T07:48:32.624Z,72.53
2022-12-19T07:49:32.930Z,72.40
2022-12-19T07:50:33.224Z,72.40
2022-12-19T07:51:41.084Z,72.30
2022-12-19T07:52:33.780Z,72.30
2022-12-19T07:53:35.823Z,72.30
2022-12-19T07:54:34.383Z,72.40
2022-12-19T07:55:34.563Z,72.50
2022-12-19T07:56:34.879Z,72.50
2022-12-19T07:57:35.215Z,72.50
2022-12-19T07:58:35.542Z,72.50
2022-12-19T07:59:39.465Z,72.50
2022-12-19T08:00:36.066Z,72.50
2022-12-19T08:01:36.531Z,72.50
2022-12-19T08:02:36.831Z,72.40
2022-12-19T08:03:37.016Z,72.40
2022-12-19T08:04:37.257Z,72.40
2022-12-19T08:05:37.600Z,72.40
2022-12-19T08:06:41.290Z,72.40
2022-12-19T08:07:38.176Z,72.40
2022-12-19T08:08:38.525Z,72.40
2022-12-19T08:09:38.837Z,72.40
2022-12-19T08:10:39.156Z,72.40
2022-12-19T08:11:39.503Z,72.30
2022-12-19T08:12:39.805Z,72.40
2022-12-19T08:13:46.257Z,72.30
2022-12-19T08:14:41.362Z,72.40
2022-12-19T08:15:40.653Z,72.40
2022-12-19T08:17:18.237Z,72.40
2022-12-19T08:17:42.188Z,72.40
2022-12-19T08:18:41.427Z,72.40
2022-12-19T08:19:41.719Z,72.36
2022-12-19T08:20:42.076Z,72.36
2022-12-19T08:21:42.417Z,72.36
2022-12-19T08:22:42.604Z,72.36
2022-12-19T08:23:42.867Z,72.36
2022-12-19T08:24:43.165Z,72.36
2022-12-19T08:41:03.965Z,72.26
2022-12-19T08:42:04.232Z,72.26
2022-12-19T08:43:04.537Z,72.26
2022-12-19T08:44:04.762Z,72.23
2022-12-19T08:45:05.121Z,72.23
2022-12-19T08:46:05.494Z,72.33
2022-12-19T08:47:05.750Z,72.33
2022-12-19T08:48:05.956Z,72.23
2022-12-19T08:49:06.212Z,72.23
2022-12-19T08:50:06.413Z,72.23
2022-12-19T08:51:06.754Z,72.23
2022-12-19T08:52:07.058Z,72.23
2022-12-19T08:53:07.328Z,72.23
2022-12-19T08:54:07.939Z,72.23
2022-12-19T08:55:07.804Z,72.19
2022-12-19T08:56:08.130Z,72.19
2022-12-19T08:57:08.475Z,72.19
2022-12-19T08:58:08.808Z,72.19
2022-12-19T08:59:09.117Z,72.19
2022-12-19T09:00:09.463Z,72.19
2022-12-19T09:01:09.820Z,72.19
2022-12-19T09:02:10.234Z,72.19
2022-12-19T09:03:10.482Z,72.19
2022-12-19T09:04:29.035Z,72.19
2022-12-19T09:05:59.314Z,72.19
2022-12-19T09:06:18.549Z,72.19
2022-12-19T09:07:12.390Z,72.09
2022-12-19T09:08:11.710Z,72.06
2022-12-19T09:09:12.012Z,72.06
2022-12-19T09:10:12.254Z,72.06
2022-12-19T09:11:12.592Z,72.06
2022-12-19T09:12:12.918Z,72.06
2022-12-19T09:13:13.230Z,72.06
2022-12-19T09:14:13.439Z,72.06
2022-12-19T09:15:13.795Z,72.06
2022-12-19T09:16:14.131Z,72.06
2022-12-19T09:17:14.465Z,72.06
2022-12-19T09:18:14.711Z,72.06
2022-12-19T09:19:15.041Z,72.06
2022-12-19T09:20:21.297Z,72.06
2022-12-19T09:21:16.670Z,72.16
2022-12-19T09:22:15.936Z,72.16
2022-12-19T09:23:16.247Z,72.16
2022-12-19T09:24:16.507Z,72.16
2022-12-19T09:25:16.763Z,72.16
2022-12-19T09:26:17.099Z,72.16
2022-12-19T09:27:17.395Z,72.27
2022-12-19T09:28:27.336Z,72.27
2022-12-19T09:29:20.570Z,72.27
2022-12-19T09:30:18.267Z,72.27
2022-12-19T09:31:18.663Z,72.27
2022-12-19T09:32:18.926Z,72.27
2022-12-19T09:33:19.112Z,72.27
2022-12-19T09:34:19.350Z,72.27
2022-12-19T09:35:19.576Z,72.27
2022-12-19T09:36:19.930Z,72.27
2022-12-19T09:37:20.135Z,72.33
2022-12-19T09:38:20.581Z,72.23
2022-12-19T09:39:20.763Z,72.33
2022-12-19T09:40:21.031Z,72.33
2022-12-19T09:41:21.349Z,72.33
2022-12-19T09:42:21.658Z,72.33
2022-12-19T09:43:22.011Z,72.33
2022-12-19T09:44:22.355Z,72.33
2022-12-19T09:45:31.955Z,72.33
2022-12-19T09:46:24.004Z,72.33
2022-12-19T09:47:23.243Z,72.33
2022-12-19T09:48:24.411Z,72.33
2022-12-19T09:49:23.795Z,72.44
2022-12-19T09:50:24.120Z,72.44
2022-12-19T09:51:24.432Z,72.44
2022-12-19T09:52:24.797Z,72.44
2022-12-19T09:53:25.007Z,72.44
2022-12-19T09:54:25.339Z,72.44
2022-12-19T09:55:25.631Z,72.44
2022-12-19T09:56:25.998Z,72.44
2022-12-19T09:57:26.291Z,72.44
2022-12-19T09:58:26.636Z,72.44
2022-12-19T09:59:29.510Z,72.44
2022-12-19T10:00:28.284Z,72.44
2022-12-19T10:01:27.735Z,72.44
2022-12-19T10:02:28.059Z,72.41
2022-12-19T10:03:28.230Z,72.41
2022-12-19T10:04:28.523Z,72.30
2022-12-19T10:05:51.700Z,72.30
2022-12-19T10:07:11.128Z,72.30
2022-12-19T10:08:01.475Z,72.30
2022-12-19T10:08:30.661Z,72.20
2022-12-19T10:11:38.180Z,72.20
2022-12-19T10:12:36.791Z,72.20
2022-12-19T10:12:38.107Z,72.16
2022-12-19T10:12:39.853Z,72.20
2022-12-19T10:13:32.146Z,72.16
2022-12-19T10:14:31.417Z,72.16
2022-12-19T10:15:31.661Z,72.16
2022-12-19T10:16:31.923Z,72.16
2022-12-19T10:17:32.143Z,72.16
2022-12-19T10:18:32.444Z,72.16
2022-12-19T10:19:32.789Z,72.16
2022-12-19T10:20:33.099Z,72.16
2022-12-19T10:21:59.526Z,72.16
2022-12-19T10:22:34.688Z,72.16
2022-12-19T10:23:34.009Z,72.16
2022-12-19T10:24:35.428Z,72.16
2022-12-19T10:25:34.502Z,72.16
2022-12-19T10:26:34.824Z,72.16
2022-12-19T10:27:35.132Z,72.16
2022-12-19T10:28:35.344Z,72.16
2022-12-19T10:29:35.686Z,72.16
2022-12-19T10:30:36.018Z,72.16
2022-12-19T10:31:36.457Z,72.16
2022-12-19T10:32:36.659Z,72.16
2022-12-19T10:33:36.999Z,72.03
2022-12-19T10:34:40.928Z,72.03
2022-12-19T10:35:37.556Z,71.92
2022-12-19T10:37:12.860Z,71.92
2022-12-19T10:37:47.218Z,71.82
2022-12-19T10:38:46.263Z,71.82
2022-12-19T10:39:39.631Z,71.72
2022-12-19T10:40:38.883Z,71.62
2022-12-19T10:41:44.065Z,71.58
2022-12-19T10:42:40.496Z,71.58
2022-12-19T10:43:44.361Z,71.48
2022-12-19T10:44:41.080Z,71.48
2022-12-19T10:45:40.381Z,71.37
2022-12-19T10:46:40.730Z,71.34
2022-12-19T10:47:40.829Z,71.24
2022-12-19T10:48:41.142Z,71.14
2022-12-19T10:49:41.383Z,71.00
2022-12-19T10:50:41.682Z,70.90
2022-12-19T10:51:42.042Z,70.79
2022-12-19T10:52:42.273Z,70.79
2022-12-19T10:53:42.590Z,70.66
2022-12-19T10:54:42.926Z,70.66
2022-12-19T10:55:43.102Z,70.66
2022-12-19T10:56:43.418Z,70.66
2022-12-19T10:57:43.651Z,70.66
2022-12-19T10:58:43.879Z,70.66
2022-12-19T10:59:44.141Z,70.66
2022-12-19T11:00:44.529Z,70.76
2022-12-19T11:02:00.698Z,70.76
2022-12-19T11:02:45.490Z,70.87
2022-12-19T11:03:46.597Z,70.97
2022-12-19T11:04:45.612Z,71.08
2022-12-19T11:05:45.743Z,71.11
2022-12-19T11:06:46.090Z,71.21
2022-12-19T11:07:46.384Z,71.21
2022-12-19T11:08:50.418Z,71.21
2022-12-19T11:10:04.614Z,71.17
2022-12-19T11:11:55.152Z,71.21
2022-12-19T11:14:44.255Z,71.11
2022-12-19T11:18:01.195Z,70.97
2022-12-19T11:20:27.031Z,70.97
2022-12-19T11:20:35.842Z,70.97
2022-12-19T11:21:27.581Z,70.87
2022-12-19T11:24:10.080Z,70.87
2022-12-19T11:24:45.038Z,70.87
2022-12-19T11:27:34.426Z,71.00
2022-12-19T11:29:25.474Z,71.00
2022-12-19T11:29:25.558Z,71.11
2022-12-19T11:29:26.191Z,71.11
2022-12-19T11:29:32.816Z,71.11
2022-12-19T11:29:37.359Z,71.11
2022-12-19T11:30:09.324Z,71.11
2022-12-19T11:30:09.513Z,71.11
2022-12-19T11:30:38.371Z,71.21
2022-12-19T11:30:42.810Z,71.21
2022-12-19T11:30:46.259Z,71.31
2022-12-19T11:31:51.350Z,71.34
2022-12-19T11:32:54.205Z,71.66
2022-12-19T11:33:53.582Z,71.79
2022-12-19T11:34:53.783Z,71.89
2022-12-19T11:35:54.123Z,71.89
2022-12-19T11:36:54.451Z,71.89
2022-12-19T11:37:55.890Z,71.79
2022-12-19T11:38:55.099Z,71.79
2022-12-19T11:39:55.423Z,71.79
2022-12-19T11:40:55.758Z,71.79
2022-12-19T11:41:56.063Z,71.89
2022-12-19T11:43:42.664Z,71.79
2022-12-19T11:43:57.675Z,71.82
2022-12-19T11:44:56.978Z,71.92
2022-12-19T11:45:57.139Z,72.03
2022-12-19T11:46:57.522Z,72.13
2022-12-19T11:47:57.818Z,72.13
2022-12-19T11:48:58.180Z,72.24
2022-12-19T11:49:58.370Z,72.13
2022-12-19T11:50:58.595Z,72.13
2022-12-19T11:51:58.926Z,72.13
2022-12-19T11:53:04.416Z,72.03
2022-12-19T11:54:00.465Z,71.89
2022-12-19T11:54:59.749Z,71.89
2022-12-19T11:55:59.994Z,71.79
2022-12-19T11:57:00.260Z,71.79
2022-12-19T11:58:00.474Z,71.69
2022-12-19T11:59:00.804Z,71.58
2022-12-19T12:00:04.973Z,71.55
2022-12-19T12:01:01.424Z,71.55
2022-12-19T12:02:01.804Z,71.55
2022-12-19T12:03:02.139Z,71.45
2022-12-19T12:04:03.347Z,71.34
2022-12-19T12:05:02.643Z,71.34
2022-12-19T12:06:03.820Z,71.34
2022-12-19T12:07:09.222Z,71.34
2022-12-19T12:09:00.272Z,71.21
2022-12-19T12:12:47.482Z,71.21
2022-12-19T12:15:39.681Z,71.11
2022-12-19T12:19:12.573Z,71.21
2022-12-19T12:19:26.918Z,71.21
2022-12-19T12:20:25.288Z,71.21
2022-12-19T12:22:56.321Z,71.11
2022-12-19T12:23:46.634Z,71.21
2022-12-19T12:25:54.603Z,71.21
2022-12-19T12:31:05.688Z,71.31
2022-12-19T12:31:14.065Z,71.21
2022-12-19T12:31:16.108Z,71.21
2022-12-19T12:31:22.292Z,71.31
2022-12-19T12:31:27.172Z,71.21
2022-12-19T12:31:39.809Z,71.31
2022-12-19T12:31:48.869Z,71.31
2022-12-19T12:31:51.537Z,71.31
2022-12-19T12:31:52.228Z,71.31
2022-12-19T12:31:52.578Z,71.31
2022-12-19T12:31:52.736Z,71.31
2022-12-19T12:32:00.736Z,71.31
2022-12-19T12:32:03.519Z,71.31
2022-12-19T12:32:06.314Z,71.31
2022-12-19T12:35:36.476Z,71.21
2022-12-19T12:35:46.224Z,71.21
2022-12-19T12:35:51.084Z,71.21
2022-12-19T12:38:22.749Z,71.41
2022-12-19T12:39:18.168Z,71.41
2022-12-19T12:40:13.644Z,71.31
2022-12-19T12:41:13.879Z,71.28
2022-12-19T12:42:13.161Z,71.17
2022-12-19T12:43:13.463Z,71.08
2022-12-19T12:44:13.812Z,71.08
2022-12-19T12:45:13.907Z,71.08
2022-12-19T12:46:14.259Z,71.08
2022-12-19T12:47:14.940Z,70.97
2022-12-19T12:48:22.340Z,70.97
2022-12-19T12:51:36.555Z,71.17
2022-12-19T12:52:36.824Z,71.28
2022-12-19T12:53:37.129Z,71.28
2022-12-19T12:54:37.497Z,71.38
2022-12-19T12:55:37.834Z,71.38
2022-12-19T12:56:38.155Z,71.38
2022-12-19T12:57:38.439Z,71.38
2022-12-19T12:58:38.642Z,71.38
2022-12-19T12:59:38.867Z,71.28
2022-12-19T13:00:39.140Z,71.28
2022-12-19T13:01:39.525Z,71.28
2022-12-19T13:02:39.896Z,71.25
2022-12-19T13:03:40.153Z,71.25
2022-12-19T13:04:40.377Z,71.14
2022-12-19T13:05:47.656Z,71.04
2022-12-19T13:06:40.817Z,71.04
2022-12-19T13:07:41.174Z,71.14
2022-12-19T13:08:41.393Z,71.25
2022-12-19T13:09:41.724Z,71.25
2022-12-19T13:10:41.921Z,71.20
2022-12-19T13:11:42.197Z,71.09
2022-12-19T13:12:42.427Z,71.15
2022-12-19T13:13:42.666Z,71.09
2022-12-19T13:14:43.025Z,71.15
2022-12-19T13:15:43.275Z,70.46
2022-12-19T13:16:43.711Z,70.37
2022-12-19T13:17:43.940Z,70.43
2022-12-19T13:18:44.251Z,70.43
2022-12-19T13:19:44.577Z,70.42
2022-12-19T13:20:44.813Z,70.33
2022-12-19T13:21:45.126Z,69.54
2022-12-19T13:22:45.488Z,69.45
2022-12-19T13:23:45.704Z,69.41